createdAt,value
2019-03-10T00:00:54.954Z,1003.83
2019-03-10T00:01:54.940Z,1003.84
2019-03-10T00:02:54.949Z,1003.75
2019-03-10T00:03:54.918Z,1003.81
2019-03-10T00:04:54.914Z,1003.81
2019-03-10T00:05:54.902Z,1003.84
2019-03-10T00:06:54.898Z,1003.84
2019-03-10T00:07:54.900Z,1003.83
2019-03-10T00:08:54.864Z,1003.79
2019-03-10T00:09:54.856Z,1003.78
2019-03-10T00:10:54.852Z,1003.76
2019-03-10T00:11:54.837Z,1003.81
2019-03-10T00:12:54.851Z,1003.84
2019-03-10T00:13:54.816Z,1003.84
2019-03-10T00:14:54.811Z,1003.86
2019-03-10T00:15:54.793Z,1003.83
2019-03-10T00:16:54.796Z,1003.84
2019-03-10T00:17:54.789Z,1003.92
2019-03-10T00:18:54.768Z,1003.77
2019-03-10T00:19:54.755Z,1003.95
2019-03-10T00:20:54.738Z,1003.80
2019-03-10T00:21:54.730Z,1003.77
2019-03-10T00:22:54.729Z,1003.81
2019-03-10T00:23:54.708Z,1003.82
2019-03-10T00:24:54.698Z,1003.87
2019-03-10T00:25:54.685Z,1003.82
2019-03-10T00:26:54.677Z,1003.86
2019-03-10T00:27:54.680Z,1003.79
2019-03-10T00:28:54.659Z,1003.81
2019-03-10T00:29:54.646Z,1003.84
2019-03-10T00:30:54.641Z,1003.90
2019-03-10T00:31:54.634Z,1003.80
2019-03-10T00:32:54.630Z,1003.82
2019-03-10T00:33:54.606Z,1003.89
2019-03-10T00:34:54.593Z,1003.93
2019-03-10T00:35:54.584Z,1003.93
2019-03-10T00:36:54.572Z,1003.96
2019-03-10T00:37:54.589Z,1004.03
2019-03-10T00:38:54.559Z,1003.92
2019-03-10T00:39:54.542Z,1003.97
2019-03-10T00:40:54.525Z,1004.01
2019-03-10T00:41:54.518Z,1003.87
2019-03-10T00:42:54.536Z,1003.96
2019-03-10T00:43:54.516Z,1003.98
2019-03-10T00:44:54.489Z,1004.03
2019-03-10T00:45:54.476Z,1004.02
2019-03-10T00:46:54.530Z,1004.01
2019-03-10T00:47:54.453Z,1003.96
2019-03-10T00:48:54.460Z,1004.05
2019-03-10T00:49:54.451Z,1003.94
2019-03-10T00:50:54.426Z,1004.01
2019-03-10T00:51:54.416Z,1003.97
2019-03-10T00:52:54.400Z,1003.99
2019-03-10T00:53:54.406Z,1004.11
2019-03-10T00:54:54.379Z,1003.98
2019-03-10T00:55:54.371Z,1003.88
2019-03-10T00:56:54.380Z,1003.86
2019-03-10T00:57:54.404Z,1003.93
2019-03-10T00:58:54.365Z,1003.85
2019-03-10T00:59:54.328Z,1003.87
2019-03-10T01:00:54.315Z,1003.90
2019-03-10T01:01:54.310Z,1003.96
2019-03-10T01:02:54.298Z,1003.97
2019-03-10T01:03:54.285Z,1003.92
2019-03-10T01:04:54.292Z,1003.92
2019-03-10T01:05:54.264Z,1003.85
2019-03-10T01:06:54.256Z,1003.89
2019-03-10T01:07:54.246Z,1003.88
2019-03-10T01:08:54.229Z,1003.90
2019-03-10T01:09:54.232Z,1003.88
2019-03-10T01:10:54.213Z,1003.79
2019-03-10T01:11:54.197Z,1003.80
2019-03-10T01:12:54.193Z,1003.90
2019-03-10T01:13:54.182Z,1003.78
2019-03-10T01:14:54.180Z,1003.83
2019-03-10T01:15:54.158Z,1003.83
2019-03-10T01:16:54.147Z,1003.85
2019-03-10T01:17:54.142Z,1003.86
2019-03-10T01:18:54.122Z,1003.84
2019-03-10T01:19:54.133Z,1003.76
2019-03-10T01:20:54.107Z,1003.78
2019-03-10T01:21:54.099Z,1003.80
2019-03-10T01:22:54.081Z,1003.70
2019-03-10T01:23:54.073Z,1003.67
2019-03-10T01:24:54.081Z,1003.70
2019-03-10T01:25:54.052Z,1003.67
2019-03-10T01:26:54.041Z,1003.63
2019-03-10T01:27:54.036Z,1003.64
2019-03-10T01:28:54.018Z,1003.65
2019-03-10T01:29:54.036Z,1003.64
2019-03-10T01:30:54.001Z,1003.70
2019-03-10T01:31:53.987Z,1003.68
2019-03-10T01:32:53.975Z,1003.61
2019-03-10T01:33:53.972Z,1003.63
2019-03-10T01:34:53.961Z,1003.64
2019-03-10T01:35:53.967Z,1003.58
2019-03-10T01:36:53.956Z,1003.64
2019-03-10T01:37:53.927Z,1003.63
2019-03-10T01:38:53.913Z,1003.49
2019-03-10T01:39:53.906Z,1003.54
2019-03-10T01:40:53.909Z,1003.52
2019-03-10T01:41:53.883Z,1003.39
2019-03-10T01:42:53.872Z,1003.42
2019-03-10T01:43:53.868Z,1003.46
2019-03-10T01:44:53.855Z,1003.47
2019-03-10T01:45:53.855Z,1003.48
2019-03-10T01:46:53.833Z,1003.43
2019-03-10T01:47:53.818Z,1003.50
2019-03-10T01:48:53.819Z,1003.49
2019-03-10T01:49:53.798Z,1003.52
2019-03-10T01:50:53.802Z,1003.42
2019-03-10T01:51:53.777Z,1003.47
2019-03-10T01:52:53.769Z,1003.43
2019-03-10T01:53:53.759Z,1003.48
2019-03-10T01:54:53.757Z,1003.41
2019-03-10T01:55:53.768Z,1003.44
2019-03-10T01:56:53.723Z,1003.39
2019-03-10T01:57:53.717Z,1003.39
2019-03-10T01:58:53.706Z,1003.46
2019-03-10T01:59:53.700Z,1003.40
2019-03-10T02:00:53.694Z,1003.39
2019-03-10T02:01:53.669Z,1003.44
2019-03-10T02:02:53.659Z,1003.40
2019-03-10T02:03:53.653Z,1003.44
2019-03-10T02:04:53.642Z,1003.35
2019-03-10T02:05:53.660Z,1003.44
2019-03-10T02:06:53.617Z,1003.25
2019-03-10T02:07:53.617Z,1003.27
2019-03-10T02:08:53.599Z,1003.28
2019-03-10T02:09:53.589Z,1003.31
2019-03-10T02:10:53.574Z,1003.37
2019-03-10T02:11:53.577Z,1003.39
2019-03-10T02:12:53.553Z,1003.33
2019-03-10T02:13:53.550Z,1003.35
2019-03-10T02:14:53.535Z,1003.30
2019-03-10T02:15:53.525Z,1003.28
2019-03-10T02:16:53.549Z,1003.33
2019-03-10T02:17:53.499Z,1003.26
2019-03-10T02:18:53.494Z,1003.28
2019-03-10T02:19:53.477Z,1003.29
2019-03-10T02:20:53.479Z,1003.31
2019-03-10T02:21:53.458Z,1003.34
2019-03-10T02:22:53.465Z,1003.35
2019-03-10T02:23:53.442Z,1003.33
2019-03-10T02:24:53.431Z,1003.23
2019-03-10T02:25:53.420Z,1003.28
2019-03-10T02:26:53.409Z,1003.23
2019-03-10T02:27:53.407Z,1003.29
2019-03-10T02:28:53.389Z,1003.28
2019-03-10T02:29:53.373Z,1003.26
2019-03-10T02:30:53.367Z,1003.22
2019-03-10T02:31:53.359Z,1003.32
2019-03-10T02:32:53.359Z,1003.29
2019-03-10T02:33:53.339Z,1003.22
2019-03-10T02:34:53.325Z,1003.20
2019-03-10T02:35:53.326Z,1003.17
2019-03-10T02:36:53.303Z,1003.20
2019-03-10T02:37:53.317Z,1003.13
2019-03-10T02:38:53.283Z,1003.09
2019-03-10T02:39:53.278Z,1003.18
2019-03-10T02:40:53.262Z,1003.11
2019-03-10T02:41:53.263Z,1003.09
2019-03-10T02:42:53.245Z,1003.01
2019-03-10T02:43:53.239Z,1002.99
2019-03-10T02:44:53.217Z,1003.00
2019-03-10T02:45:53.217Z,1003.03
2019-03-10T02:46:53.209Z,1003.05
2019-03-10T02:47:53.186Z,1003.01
2019-03-10T02:48:53.194Z,1002.90
2019-03-10T02:49:53.164Z,1003.00
2019-03-10T02:50:53.158Z,1002.99
2019-03-10T02:51:53.149Z,1002.97
2019-03-10T02:52:53.137Z,1002.97
2019-03-10T02:53:53.153Z,1003.00
2019-03-10T02:54:53.115Z,1002.98
2019-03-10T02:55:53.106Z,1003.04
2019-03-10T02:56:53.112Z,1002.95
2019-03-10T02:57:53.087Z,1002.98
2019-03-10T02:58:53.068Z,1002.97
2019-03-10T02:59:53.077Z,1002.99
2019-03-10T03:00:53.054Z,1002.94
2019-03-10T03:01:53.037Z,1002.92
2019-03-10T03:02:53.041Z,1002.98
2019-03-10T03:03:53.021Z,1002.92
2019-03-10T03:04:53.030Z,1002.89
2019-03-10T03:05:53.000Z,1002.97
2019-03-10T03:06:52.992Z,1002.93
2019-03-10T03:07:52.977Z,1002.95
2019-03-10T03:08:52.963Z,1002.97
2019-03-10T03:09:52.985Z,1002.87
2019-03-10T03:10:52.947Z,1002.86
2019-03-10T03:11:52.950Z,1002.91
2019-03-10T03:12:52.930Z,1002.88
2019-03-10T03:13:52.925Z,1002.84
2019-03-10T03:14:52.912Z,1002.81
2019-03-10T03:15:52.905Z,1002.73
2019-03-10T03:16:53.007Z,1002.76
2019-03-10T03:17:52.883Z,1002.68
2019-03-10T03:18:52.860Z,1002.70
2019-03-10T03:19:52.854Z,1002.66
2019-03-10T03:20:52.868Z,1002.66
2019-03-10T03:21:52.835Z,1002.69
2019-03-10T03:22:52.829Z,1002.75
2019-03-10T03:23:52.817Z,1002.78
2019-03-10T03:24:52.805Z,1002.77
2019-03-10T03:25:52.810Z,1002.79
2019-03-10T03:26:52.778Z,1002.75
2019-03-10T03:27:52.778Z,1002.74
2019-03-10T03:28:52.763Z,1002.75
2019-03-10T03:29:52.743Z,1002.78
2019-03-10T03:30:52.759Z,1002.77
2019-03-10T03:31:52.910Z,1002.81
2019-03-10T03:32:52.715Z,1002.79
2019-03-10T03:33:52.720Z,1002.73
2019-03-10T03:34:52.701Z,1002.76
2019-03-10T03:35:52.685Z,1002.71
2019-03-10T03:36:52.690Z,1002.72
2019-03-10T03:37:52.663Z,1002.76
2019-03-10T03:38:52.655Z,1002.72
2019-03-10T03:39:52.646Z,1002.71
2019-03-10T03:40:52.631Z,1002.72
2019-03-10T03:41:52.636Z,1002.72
2019-03-10T03:42:52.617Z,1002.71
2019-03-10T03:43:52.600Z,1002.73
2019-03-10T03:44:52.594Z,1002.70
2019-03-10T03:45:52.584Z,1002.64
2019-03-10T03:46:52.581Z,1002.60
2019-03-10T03:47:52.557Z,1002.49
2019-03-10T03:48:52.549Z,1002.49
2019-03-10T03:49:52.539Z,1002.51
2019-03-10T03:50:52.525Z,1002.54
2019-03-10T03:51:52.536Z,1002.53
2019-03-10T03:52:52.506Z,1002.50
2019-03-10T03:53:52.496Z,1002.50
2019-03-10T03:54:52.490Z,1002.44
2019-03-10T03:55:52.475Z,1002.50
2019-03-10T03:56:52.476Z,1002.45
2019-03-10T03:57:52.484Z,1002.47
2019-03-10T03:58:52.501Z,1002.45
2019-03-10T03:59:52.430Z,1002.47
2019-03-10T04:00:52.427Z,1002.39
2019-03-10T04:01:52.431Z,1002.48
2019-03-10T04:02:52.405Z,1002.50
2019-03-10T04:03:52.424Z,1002.48
2019-03-10T04:04:52.381Z,1002.50
2019-03-10T04:05:52.373Z,1002.54
2019-03-10T04:06:52.384Z,1002.57
2019-03-10T04:07:52.366Z,1002.52
2019-03-10T04:08:52.344Z,1002.56
2019-03-10T04:09:52.329Z,1002.48
2019-03-10T04:10:52.320Z,1002.54
2019-03-10T04:11:52.325Z,1002.54
2019-03-10T04:12:52.299Z,1002.58
2019-03-10T04:13:52.292Z,1002.53
2019-03-10T04:14:52.272Z,1002.54
2019-03-10T04:15:52.263Z,1002.55
2019-03-10T04:16:52.274Z,1002.57
2019-03-10T04:17:52.243Z,1002.54
2019-03-10T04:18:52.233Z,1002.54
2019-03-10T04:19:52.226Z,1002.56
2019-03-10T04:20:52.213Z,1002.52
2019-03-10T04:21:52.216Z,1002.61
2019-03-10T04:22:52.211Z,1002.56
2019-03-10T04:23:52.182Z,1002.59
2019-03-10T04:24:52.177Z,1002.61
2019-03-10T04:25:52.159Z,1002.61
2019-03-10T04:26:52.160Z,1002.56
2019-03-10T04:27:52.141Z,1002.55
2019-03-10T04:28:52.125Z,1002.55
2019-03-10T04:29:52.115Z,1002.53
2019-03-10T04:30:52.109Z,1002.51
2019-03-10T04:31:52.112Z,1002.52
2019-03-10T04:32:52.087Z,1002.48
2019-03-10T04:33:52.075Z,1002.49
2019-03-10T04:34:52.066Z,1002.56
2019-03-10T04:35:52.054Z,1002.50
2019-03-10T04:36:52.055Z,1002.53
2019-03-10T04:37:52.040Z,1002.53
2019-03-10T04:38:52.023Z,1002.56
2019-03-10T04:39:52.010Z,1002.57
2019-03-10T04:40:52.027Z,1002.61
2019-03-10T04:41:52.005Z,1002.58
2019-03-10T04:42:51.980Z,1002.55
2019-03-10T04:43:51.972Z,1002.59
2019-03-10T04:44:51.964Z,1002.55
2019-03-10T04:45:51.968Z,1002.43
2019-03-10T04:46:51.959Z,1002.53
2019-03-10T04:47:51.928Z,1002.53
2019-03-10T04:48:51.916Z,1002.52
2019-03-10T04:49:51.907Z,1002.59
2019-03-10T04:50:51.902Z,1002.55
2019-03-10T04:51:51.888Z,1002.61
2019-03-10T04:52:51.889Z,1002.60
2019-03-10T04:53:51.862Z,1002.61
2019-03-10T04:54:51.858Z,1002.64
2019-03-10T04:55:51.842Z,1002.69
2019-03-10T04:56:51.836Z,1002.63
2019-03-10T04:57:51.835Z,1002.61
2019-03-10T04:58:51.812Z,1002.61
2019-03-10T04:59:51.802Z,1002.59
2019-03-10T05:00:51.794Z,1002.60
2019-03-10T05:01:51.780Z,1002.62
2019-03-10T05:02:51.794Z,1002.68
2019-03-10T05:03:51.762Z,1002.61
2019-03-10T05:04:51.769Z,1002.64
2019-03-10T05:05:51.737Z,1002.64
2019-03-10T05:06:51.728Z,1002.70
2019-03-10T05:07:51.724Z,1002.81
2019-03-10T05:08:51.727Z,1002.67
2019-03-10T05:09:51.694Z,1002.75
2019-03-10T05:10:51.690Z,1002.70
2019-03-10T05:11:51.676Z,1002.66
2019-03-10T05:12:51.667Z,1002.67
2019-03-10T05:13:51.669Z,1002.70
2019-03-10T05:14:51.643Z,1002.66
2019-03-10T05:15:51.640Z,1002.63
2019-03-10T05:16:51.621Z,1002.63
2019-03-10T05:17:51.615Z,1002.60
2019-03-10T05:18:51.618Z,1002.67
2019-03-10T05:19:51.592Z,1002.62
2019-03-10T05:20:51.580Z,1002.63
2019-03-10T05:21:51.580Z,1002.58
2019-03-10T05:22:51.564Z,1002.58
2019-03-10T05:23:51.582Z,1002.58
2019-03-10T05:24:51.546Z,1002.51
2019-03-10T05:25:51.532Z,1002.52
2019-03-10T05:26:51.520Z,1002.56
2019-03-10T05:27:51.511Z,1002.53
2019-03-10T05:28:51.502Z,1002.55
2019-03-10T05:29:51.502Z,1002.52
2019-03-10T05:30:51.478Z,1002.57
2019-03-10T05:31:51.464Z,1002.54
2019-03-10T05:32:51.458Z,1002.51
2019-03-10T05:33:51.446Z,1002.48
2019-03-10T05:34:51.461Z,1002.46
2019-03-10T05:35:51.427Z,1002.47
2019-03-10T05:36:51.412Z,1002.48
2019-03-10T05:37:51.401Z,1002.45
2019-03-10T05:38:51.394Z,1002.45
2019-03-10T05:39:51.411Z,1002.40
2019-03-10T05:40:51.382Z,1002.37
2019-03-10T05:41:51.358Z,1002.38
2019-03-10T05:42:51.352Z,1002.31
2019-03-10T05:43:51.347Z,1002.29
2019-03-10T05:44:51.335Z,1002.31
2019-03-10T05:45:51.335Z,1002.26
2019-03-10T05:46:51.363Z,1002.30
2019-03-10T05:47:51.296Z,1002.30
2019-03-10T05:48:51.290Z,1002.31
2019-03-10T05:49:51.279Z,1002.32
2019-03-10T05:50:51.282Z,1002.20
2019-03-10T05:51:51.254Z,1002.20
2019-03-10T05:52:51.246Z,1002.19
2019-03-10T05:53:51.239Z,1002.17
2019-03-10T05:54:51.222Z,1002.17
2019-03-10T05:55:51.229Z,1002.14
2019-03-10T05:56:51.227Z,1002.17
2019-03-10T05:57:51.198Z,1002.16
2019-03-10T05:58:51.182Z,1002.15
2019-03-10T05:59:51.170Z,1002.14
2019-03-10T06:00:51.184Z,1002.11
2019-03-10T06:01:51.153Z,1002.12
2019-03-10T06:02:51.142Z,1002.03
2019-03-10T06:03:51.132Z,1002.07
2019-03-10T06:04:51.128Z,1002.06
2019-03-10T06:05:51.117Z,1001.98
2019-03-10T06:06:51.111Z,1001.98
2019-03-10T06:07:51.099Z,1002.04
2019-03-10T06:08:51.075Z,1001.97
2019-03-10T06:09:51.065Z,1001.99
2019-03-10T06:10:51.063Z,1001.97
2019-03-10T06:11:51.063Z,1001.99
2019-03-10T06:12:51.035Z,1001.95
2019-03-10T06:13:51.027Z,1001.96
2019-03-10T06:14:51.016Z,1001.89
2019-03-10T06:15:51.010Z,1001.91
2019-03-10T06:16:51.031Z,1001.88
2019-03-10T06:17:51.015Z,1001.84
2019-03-10T06:18:50.976Z,1001.84
2019-03-10T06:19:50.968Z,1001.79
2019-03-10T06:20:50.952Z,1001.80
2019-03-10T06:21:50.983Z,1001.75
2019-03-10T06:22:50.998Z,1001.78
2019-03-10T06:23:50.932Z,1001.83
2019-03-10T06:24:50.952Z,1001.82
2019-03-10T06:25:50.904Z,1001.82
2019-03-10T06:26:50.902Z,1001.83
2019-03-10T06:27:50.904Z,1001.79
2019-03-10T06:28:51.119Z,1001.72
2019-03-10T06:29:50.863Z,1001.76
2019-03-10T06:30:50.856Z,1001.82
2019-03-10T06:31:50.845Z,1001.80
2019-03-10T06:32:50.876Z,1001.80
2019-03-10T06:33:50.813Z,1001.86
2019-03-10T06:34:50.805Z,1001.78
2019-03-10T06:35:50.807Z,1001.78
2019-03-10T06:36:50.800Z,1001.78
2019-03-10T06:37:50.775Z,1001.70
2019-03-10T06:38:50.790Z,1001.66
2019-03-10T06:39:50.758Z,1001.67
2019-03-10T06:40:50.747Z,1001.65
2019-03-10T06:41:50.729Z,1001.63
2019-03-10T06:42:50.719Z,1001.67
2019-03-10T06:43:50.734Z,1001.61
2019-03-10T06:44:50.709Z,1001.63
2019-03-10T06:45:50.690Z,1001.57
2019-03-10T06:46:50.676Z,1001.64
2019-03-10T06:47:50.668Z,1001.66
2019-03-10T06:48:50.679Z,1001.67
2019-03-10T06:49:50.649Z,1001.64
2019-03-10T06:50:50.647Z,1001.62
2019-03-10T06:51:50.630Z,1001.69
2019-03-10T06:52:50.692Z,1001.69
2019-03-10T06:53:50.969Z,1001.68
2019-03-10T06:54:50.598Z,1001.67
2019-03-10T06:55:50.580Z,1001.66
2019-03-10T06:56:50.575Z,1001.65
2019-03-10T06:57:50.635Z,1001.71
2019-03-10T06:58:50.663Z,1001.65
2019-03-10T06:59:50.568Z,1001.60
2019-03-10T07:00:50.539Z,1001.64
2019-03-10T07:01:50.528Z,1001.64
2019-03-10T07:02:50.511Z,1001.69
2019-03-10T07:03:50.543Z,1001.64
2019-03-10T07:04:50.489Z,1001.64
2019-03-10T07:05:50.479Z,1001.58
2019-03-10T07:06:50.471Z,1001.63
2019-03-10T07:07:50.457Z,1001.56
2019-03-10T07:08:50.451Z,1001.50
2019-03-10T07:09:50.485Z,1001.50
2019-03-10T07:10:50.444Z,1001.52
2019-03-10T07:11:50.417Z,1001.52
2019-03-10T07:12:50.422Z,1001.56
2019-03-10T07:13:50.422Z,1001.55
2019-03-10T07:14:50.455Z,1001.49
2019-03-10T07:15:50.545Z,1001.53
2019-03-10T07:16:50.395Z,1001.51
2019-03-10T07:17:50.567Z,1001.53
2019-03-10T07:18:50.471Z,1001.50
2019-03-10T07:19:50.417Z,1001.49
2019-03-10T07:20:50.391Z,1001.44
2019-03-10T07:21:50.468Z,1001.48
2019-03-10T07:22:50.459Z,1001.46
2019-03-10T07:23:50.410Z,1001.50
2019-03-10T07:24:50.699Z,1001.49
2019-03-10T07:25:50.291Z,1001.45
2019-03-10T07:26:50.509Z,1001.43
2019-03-10T07:27:50.305Z,1001.45
2019-03-10T07:28:50.244Z,1001.43
2019-03-10T07:29:50.248Z,1001.42
2019-03-10T07:30:50.214Z,1001.44
2019-03-10T07:31:50.210Z,1001.45
2019-03-10T07:32:50.199Z,1001.42
2019-03-10T07:33:50.189Z,1001.37
2019-03-10T07:34:50.188Z,1001.33
2019-03-10T07:35:50.164Z,1001.33
2019-03-10T07:36:50.151Z,1001.36
2019-03-10T07:37:50.150Z,1001.30
2019-03-10T07:38:50.145Z,1001.36
2019-03-10T07:39:50.149Z,1001.31
2019-03-10T07:40:50.122Z,1001.30
2019-03-10T07:41:50.200Z,1001.34
2019-03-10T07:42:50.092Z,1001.29
2019-03-10T07:43:50.197Z,1001.33
2019-03-10T07:44:50.103Z,1001.34
2019-03-10T07:45:50.411Z,1001.27
2019-03-10T07:46:50.050Z,1001.18
2019-03-10T07:47:50.048Z,1001.19
2019-03-10T07:48:50.026Z,1001.25
2019-03-10T07:49:50.023Z,1001.23
2019-03-10T07:50:50.022Z,1001.21
2019-03-10T07:51:50.006Z,1001.22
2019-03-10T07:52:49.988Z,1001.20
2019-03-10T07:53:49.973Z,1001.20
2019-03-10T07:54:49.968Z,1001.18
2019-03-10T07:55:49.971Z,1001.18
2019-03-10T07:56:49.948Z,1001.16
2019-03-10T07:57:49.934Z,1001.16
2019-03-10T07:58:49.928Z,1001.11
2019-03-10T07:59:49.912Z,1001.13
2019-03-10T08:00:49.911Z,1001.09
2019-03-10T08:01:49.907Z,1001.07
2019-03-10T08:02:49.881Z,1001.00
2019-03-10T08:03:49.869Z,1001.01
2019-03-10T08:04:49.861Z,1001.00
2019-03-10T08:05:49.864Z,1000.97
2019-03-10T08:06:49.866Z,1000.97
2019-03-10T08:07:49.826Z,1000.91
2019-03-10T08:08:49.819Z,1000.92
2019-03-10T08:09:49.806Z,1000.91
2019-03-10T08:10:49.804Z,1000.88
2019-03-10T08:11:49.785Z,1000.92
2019-03-10T08:12:49.779Z,1000.89
2019-03-10T08:13:49.768Z,1000.89
2019-03-10T08:14:49.755Z,1000.86
2019-03-10T08:15:49.761Z,1000.79
2019-03-10T08:16:49.729Z,1000.89
2019-03-10T08:17:49.723Z,1000.80
2019-03-10T08:18:49.708Z,1000.83
2019-03-10T08:19:49.702Z,1000.80
2019-03-10T08:20:49.710Z,1000.79
2019-03-10T08:21:49.679Z,1000.75
2019-03-10T08:22:49.669Z,1000.76
2019-03-10T08:23:49.655Z,1000.69
2019-03-10T08:24:49.787Z,1000.68
2019-03-10T08:25:49.672Z,1000.63
2019-03-10T08:26:49.775Z,1000.69
2019-03-10T08:27:49.615Z,1000.60
2019-03-10T08:28:49.876Z,1000.56
2019-03-10T08:29:49.779Z,1000.53
2019-03-10T08:30:49.675Z,1000.56
2019-03-10T08:31:49.835Z,1000.53
2019-03-10T08:32:49.720Z,1000.48
2019-03-10T08:33:49.755Z,1000.48
2019-03-10T08:34:49.595Z,1000.45
2019-03-10T08:35:49.608Z,1000.41
2019-03-10T08:36:49.884Z,1000.39
2019-03-10T08:37:49.527Z,1000.30
2019-03-10T08:38:49.546Z,1000.27
2019-03-10T08:39:49.531Z,1000.29
2019-03-10T08:40:49.555Z,1000.30
2019-03-10T08:41:49.644Z,1000.27
2019-03-10T08:42:49.770Z,1000.26
2019-03-10T08:43:49.632Z,1000.25
2019-03-10T08:44:49.515Z,1000.26
2019-03-10T08:45:49.428Z,1000.15
2019-03-10T08:46:49.453Z,1000.14
2019-03-10T08:47:49.471Z,1000.18
2019-03-10T08:48:49.570Z,1000.15
2019-03-10T08:49:49.382Z,1000.17
2019-03-10T08:50:49.376Z,1000.23
2019-03-10T08:51:49.378Z,1000.14
2019-03-10T08:52:49.351Z,1000.20
2019-03-10T08:53:49.347Z,1000.17
2019-03-10T08:54:49.333Z,1000.13
2019-03-10T08:55:49.316Z,1000.13
2019-03-10T08:56:49.636Z,1000.08
2019-03-10T08:57:49.442Z,1000.06
2019-03-10T08:58:49.388Z,1000.10
2019-03-10T08:59:49.278Z,1000.11
2019-03-10T09:00:49.264Z,1000.08
2019-03-10T09:01:49.374Z,1000.07
2019-03-10T09:02:49.258Z,1000.10
2019-03-10T09:03:49.315Z,1000.07
2019-03-10T09:04:49.351Z,1000.08
2019-03-10T09:05:49.280Z,999.96
2019-03-10T09:06:49.212Z,1000.00
2019-03-10T09:07:49.208Z,999.99
2019-03-10T09:08:49.191Z,999.87
2019-03-10T09:09:49.172Z,999.90
2019-03-10T09:10:49.166Z,999.86
2019-03-10T09:11:49.148Z,999.86
2019-03-10T09:12:49.154Z,999.87
2019-03-10T09:13:49.130Z,999.90
2019-03-10T09:14:49.121Z,999.91
2019-03-10T09:15:49.109Z,999.94
2019-03-10T09:16:49.113Z,999.90
2019-03-10T09:17:49.125Z,999.87
2019-03-10T09:18:49.077Z,999.80
2019-03-10T09:19:49.065Z,999.76
2019-03-10T09:20:49.056Z,999.76
2019-03-10T09:21:49.043Z,999.70
2019-03-10T09:22:49.033Z,999.70
2019-03-10T09:23:49.047Z,999.68
2019-03-10T09:24:49.013Z,999.65
2019-03-10T09:25:49.000Z,999.59
2019-03-10T09:26:48.999Z,999.62
2019-03-10T09:27:48.993Z,999.59
2019-03-10T09:28:49.011Z,999.63
2019-03-10T09:29:48.962Z,999.54
2019-03-10T09:30:48.954Z,999.57
2019-03-10T09:31:48.938Z,999.51
2019-03-10T09:32:48.948Z,999.54
2019-03-10T09:33:48.950Z,999.50
2019-03-10T09:34:48.907Z,999.48
2019-03-10T09:35:48.895Z,999.48
2019-03-10T09:36:48.888Z,999.47
2019-03-10T09:37:48.875Z,999.44
2019-03-10T09:38:48.914Z,999.43
2019-03-10T09:39:48.859Z,999.35
2019-03-10T09:40:48.855Z,999.34
2019-03-10T09:41:48.838Z,999.35
2019-03-10T09:42:48.822Z,999.36
2019-03-10T09:43:48.821Z,999.31
2019-03-10T09:44:48.815Z,999.27
2019-03-10T09:45:48.798Z,999.27
2019-03-10T09:46:48.784Z,999.24
2019-03-10T09:47:48.772Z,999.22
2019-03-10T09:48:48.760Z,999.23
2019-03-10T09:49:48.766Z,999.21
2019-03-10T09:50:48.744Z,999.20
2019-03-10T09:51:48.735Z,999.19
2019-03-10T09:52:48.721Z,999.18
2019-03-10T09:53:48.708Z,999.16
2019-03-10T09:54:48.716Z,999.19
2019-03-10T09:55:48.691Z,999.16
2019-03-10T09:56:48.826Z,999.11
2019-03-10T09:57:48.895Z,999.10
2019-03-10T09:58:48.794Z,999.03
2019-03-10T09:59:48.940Z,999.04
2019-03-10T10:00:48.718Z,998.95
2019-03-10T10:01:48.622Z,998.92
2019-03-10T10:02:48.616Z,998.86
2019-03-10T10:03:48.607Z,998.86
2019-03-10T10:04:48.644Z,998.88
2019-03-10T10:05:48.582Z,998.80
2019-03-10T10:06:48.574Z,998.84
2019-03-10T10:07:48.561Z,998.83
2019-03-10T10:08:48.550Z,998.78
2019-03-10T10:09:48.541Z,998.81
2019-03-10T10:10:48.540Z,998.72
2019-03-10T10:11:48.515Z,998.73
2019-03-10T10:12:48.507Z,998.72
2019-03-10T10:13:48.495Z,998.69
2019-03-10T10:14:48.796Z,998.73
2019-03-10T10:15:48.490Z,998.77
2019-03-10T10:16:48.479Z,998.69
2019-03-10T10:17:48.452Z,998.70
2019-03-10T10:18:48.446Z,998.65
2019-03-10T10:19:48.430Z,998.61
2019-03-10T10:20:48.462Z,998.61
2019-03-10T10:21:48.418Z,998.57
2019-03-10T10:22:48.400Z,998.60
2019-03-10T10:23:48.390Z,998.57
2019-03-10T10:24:48.377Z,998.51
2019-03-10T10:25:48.369Z,998.55
2019-03-10T10:26:48.374Z,998.52
2019-03-10T10:27:48.353Z,998.49
2019-03-10T10:28:48.338Z,998.48
2019-03-10T10:29:48.348Z,998.44
2019-03-10T10:30:48.317Z,998.39
2019-03-10T10:31:48.326Z,998.35
2019-03-10T10:32:48.297Z,998.32
2019-03-10T10:33:48.286Z,998.32
2019-03-10T10:34:48.285Z,998.30
2019-03-10T10:35:48.267Z,998.25
2019-03-10T10:36:48.271Z,998.20
2019-03-10T10:37:48.251Z,998.21
2019-03-10T10:38:48.230Z,998.14
2019-03-10T10:39:48.226Z,998.13
2019-03-10T10:40:48.218Z,998.17
2019-03-10T10:41:48.237Z,998.14
2019-03-10T10:42:48.196Z,998.14
2019-03-10T10:43:48.182Z,998.13
2019-03-10T10:44:48.170Z,998.09
2019-03-10T10:45:48.159Z,998.10
2019-03-10T10:46:48.150Z,998.03
2019-03-10T10:47:48.159Z,998.07
2019-03-10T10:48:48.141Z,998.07
2019-03-10T10:49:48.219Z,998.03
2019-03-10T10:50:48.118Z,998.00
2019-03-10T10:51:48.097Z,997.96
2019-03-10T10:52:48.112Z,998.06
2019-03-10T10:53:48.073Z,998.01
2019-03-10T10:54:48.084Z,997.97
2019-03-10T10:55:48.058Z,998.06
2019-03-10T10:56:48.053Z,998.04
2019-03-10T10:57:48.082Z,998.02
2019-03-10T10:58:48.023Z,998.09
2019-03-10T10:59:48.014Z,998.10
2019-03-10T11:00:48.000Z,998.10
2019-03-10T11:01:48.011Z,998.10
2019-03-10T11:02:48.003Z,998.04
2019-03-10T11:03:47.966Z,998.01
2019-03-10T11:04:47.984Z,997.99
2019-03-10T11:05:47.949Z,997.94
2019-03-10T11:06:47.935Z,997.95
2019-03-10T11:07:47.927Z,997.86
2019-03-10T11:08:47.937Z,997.83
2019-03-10T11:09:47.911Z,997.79
2019-03-10T11:10:47.903Z,997.72
2019-03-10T11:11:47.882Z,997.68
2019-03-10T11:12:47.880Z,997.62
2019-03-10T11:13:47.881Z,997.60
2019-03-10T11:14:47.856Z,997.62
2019-03-10T11:15:47.844Z,997.64
2019-03-10T11:16:47.834Z,997.58
2019-03-10T11:17:47.822Z,997.54
2019-03-10T11:18:47.823Z,997.57
2019-03-10T11:19:47.806Z,997.48
2019-03-10T11:20:47.791Z,997.45
2019-03-10T11:21:47.786Z,997.38
2019-03-10T11:22:47.802Z,997.38
2019-03-10T11:23:47.810Z,997.42
2019-03-10T11:24:47.748Z,997.41
2019-03-10T11:25:47.747Z,997.44
2019-03-10T11:26:47.726Z,997.46
2019-03-10T11:27:47.717Z,997.42
2019-03-10T11:28:47.718Z,997.40
2019-03-10T11:29:47.693Z,997.42
2019-03-10T11:30:47.685Z,997.40
2019-03-10T11:31:47.677Z,997.36
2019-03-10T11:32:47.662Z,997.36
2019-03-10T11:33:47.670Z,997.39
2019-03-10T11:34:47.642Z,997.44
2019-03-10T11:35:47.634Z,997.44
2019-03-10T11:36:47.618Z,997.46
2019-03-10T11:37:47.614Z,997.37
2019-03-10T11:38:47.622Z,997.34
2019-03-10T11:39:47.591Z,997.31
2019-03-10T11:40:47.577Z,997.31
2019-03-10T11:41:48.191Z,997.25
2019-03-10T11:42:47.569Z,997.33
2019-03-10T11:43:47.563Z,997.38
2019-03-10T11:44:47.559Z,997.31
2019-03-10T11:45:47.524Z,997.22
2019-03-10T11:46:47.513Z,997.29
2019-03-10T11:47:47.517Z,997.27
2019-03-10T11:48:47.509Z,997.24
2019-03-10T11:49:47.480Z,997.25
2019-03-10T11:50:47.473Z,997.21
2019-03-10T11:51:47.466Z,997.20
2019-03-10T11:52:47.453Z,997.06
2019-03-10T11:53:47.470Z,997.04
2019-03-10T11:54:47.435Z,997.09
2019-03-10T11:55:47.421Z,997.09
2019-03-10T11:56:47.414Z,997.03
2019-03-10T11:57:47.401Z,997.03
2019-03-10T11:58:47.387Z,997.01
2019-03-10T11:59:47.402Z,997.01
2019-03-10T12:00:47.367Z,996.95
2019-03-10T12:01:47.357Z,996.91
2019-03-10T12:02:47.349Z,996.85
2019-03-10T12:03:47.333Z,996.80
2019-03-10T12:04:47.337Z,996.79
2019-03-10T12:05:47.313Z,996.81
2019-03-10T12:06:47.303Z,996.74
2019-03-10T12:07:47.293Z,996.72
2019-03-10T12:08:47.282Z,996.67
2019-03-10T12:09:47.286Z,996.67
2019-03-10T12:10:47.264Z,996.60
2019-03-10T12:11:47.254Z,996.64